sensor_id;sensor_type;location;lat;lon;timestamp;P1;durP1;ratioP1;P2;durP2;ratioP2
70102;SDS011;57470;50.034;15.256;2023-06-22T00:01:48;4.90;;;1.67;;
70102;SDS011;57470;50.034;15.256;2023-06-22T00:04:14;6.20;;;2.20;;
70102;SDS011;57470;50.034;15.256;2023-06-22T00:06:40;6.27;;;2.33;;
70102;SDS011;57470;50.034;15.256;2023-06-22T00:09:05;6.80;;;2.03;;
70102;SDS011;57470;50.034;15.256;2023-06-22T00:11:32;5.93;;;1.50;;
70102;SDS011;57470;50.034;15.256;2023-06-22T00:13:58;5.00;;;1.60;;
70102;SDS011;57470;50.034;15.256;2023-06-22T00:16:24;6.80;;;1.88;;
70102;SDS011;57470;50.034;15.256;2023-06-22T00:18:49;4.80;;;1.80;;
70102;SDS011;57470;50.034;15.256;2023-06-22T00:21:15;5.43;;;1.50;;
70102;SDS011;57470;50.034;15.256;2023-06-22T00:23:40;8.67;;;2.00;;
70102;SDS011;57470;50.034;15.256;2023-06-22T00:26:06;8.18;;;2.20;;
70102;SDS011;57470;50.034;15.256;2023-06-22T00:28:31;5.57;;;1.97;;
70102;SDS011;57470;50.034;15.256;2023-06-22T00:30:57;4.65;;;1.55;;
70102;SDS011;57470;50.034;15.256;2023-06-22T00:33:22;6.87;;;1.87;;
70102;SDS011;57470;50.034;15.256;2023-06-22T00:35:48;6.67;;;1.70;;
70102;SDS011;57470;50.034;15.256;2023-06-22T00:38:13;5.83;;;2.03;;
70102;SDS011;57470;50.034;15.256;2023-06-22T00:40:38;6.40;;;1.87;;
70102;SDS011;57470;50.034;15.256;2023-06-22T00:43:04;6.05;;;1.90;;
70102;SDS011;57470;50.034;15.256;2023-06-22T00:45:30;5.97;;;1.60;;
70102;SDS011;57470;50.034;15.256;2023-06-22T00:47:56;7.53;;;1.90;;
70102;SDS011;57470;50.034;15.256;2023-06-22T00:50:23;8.75;;;2.13;;
70102;SDS011;57470;50.034;15.256;2023-06-22T00:52:51;5.90;;;1.93;;
70102;SDS011;57470;50.034;15.256;2023-06-22T00:55:18;6.00;;;2.30;;
70102;SDS011;57470;50.034;15.256;2023-06-22T00:57:46;8.57;;;1.83;;
70102;SDS011;57470;50.034;15.256;2023-06-22T01:00:12;6.18;;;1.67;;
70102;SDS011;57470;50.034;15.256;2023-06-22T01:02:38;6.53;;;1.67;;
70102;SDS011;57470;50.034;15.256;2023-06-22T01:05:04;5.25;;;1.80;;
70102;SDS011;57470;50.034;15.256;2023-06-22T01:10:09;7.90;;;2.05;;
70102;SDS011;57470;50.034;15.256;2023-06-22T01:12:58;5.45;;;1.80;;
70102;SDS011;57470;50.034;15.256;2023-06-22T01:15:39;7.13;;;1.63;;
70102;SDS011;57470;50.034;15.256;2023-06-22T01:18:09;7.13;;;1.95;;
70102;SDS011;57470;50.034;15.256;2023-06-22T01:20:35;6.07;;;2.03;;
70102;SDS011;57470;50.034;15.256;2023-06-22T01:23:05;6.20;;;1.80;;
70102;SDS011;57470;50.034;15.256;2023-06-22T01:25:53;9.52;;;1.73;;
70102;SDS011;57470;50.034;15.256;2023-06-22T01:31:18;7.75;;;1.70;;
70102;SDS011;57470;50.034;15.256;2023-06-22T01:33:52;4.50;;;1.37;;
70102;SDS011;57470;50.034;15.256;2023-06-22T01:36:20;7.38;;;1.50;;
70102;SDS011;57470;50.034;15.256;2023-06-22T01:38:47;8.00;;;2.03;;
70102;SDS011;57470;50.034;15.256;2023-06-22T01:41:14;7.88;;;1.77;;
70102;SDS011;57470;50.034;15.256;2023-06-22T01:43:41;5.72;;;1.92;;
70102;SDS011;57470;50.034;15.256;2023-06-22T01:46:07;4.90;;;1.50;;
70102;SDS011;57470;50.034;15.256;2023-06-22T01:48:33;6.05;;;1.95;;
70102;SDS011;57470;50.034;15.256;2023-06-22T01:50:59;10.35;;;2.00;;
70102;SDS011;57470;50.034;15.256;2023-06-22T01:53:24;6.07;;;2.00;;
70102;SDS011;57470;50.034;15.256;2023-06-22T01:55:50;10.90;;;2.27;;
70102;SDS011;57470;50.034;15.256;2023-06-22T01:58:16;5.27;;;1.67;;
70102;SDS011;57470;50.034;15.256;2023-06-22T02:00:48;6.53;;;1.65;;
70102;SDS011;57470;50.034;15.256;2023-06-22T02:03:31;5.20;;;1.80;;
70102;SDS011;57470;50.034;15.256;2023-06-22T02:06:03;14.07;;;1.57;;
70102;SDS011;57470;50.034;15.256;2023-06-22T02:08:41;7.28;;;1.85;;
70102;SDS011;57470;50.034;15.256;2023-06-22T02:11:13;5.35;;;1.55;;
70102;SDS011;57470;50.034;15.256;2023-06-22T02:13:41;8.10;;;2.00;;
70102;SDS011;57470;50.034;15.256;2023-06-22T02:16:09;9.77;;;2.00;;
70102;SDS011;57470;50.034;15.256;2023-06-22T02:18:36;5.30;;;1.80;;
70102;SDS011;57470;50.034;15.256;2023-06-22T02:21:02;7.30;;;2.30;;
70102;SDS011;57470;50.034;15.256;2023-06-22T02:23:27;5.28;;;1.98;;
70102;SDS011;57470;50.034;15.256;2023-06-22T02:25:53;11.23;;;2.57;;
70102;SDS011;57470;50.034;15.256;2023-06-22T02:28:19;5.20;;;1.57;;
70102;SDS011;57470;50.034;15.256;2023-06-22T02:30:44;7.87;;;2.10;;
70102;SDS011;57470;50.034;15.256;2023-06-22T02:33:09;7.77;;;2.67;;
70102;SDS011;57470;50.034;15.256;2023-06-22T02:35:35;6.73;;;2.27;;
70102;SDS011;57470;50.034;15.256;2023-06-22T02:38:01;5.70;;;2.00;;
70102;SDS011;57470;50.034;15.256;2023-06-22T02:40:30;8.25;;;1.83;;
70102;SDS011;57470;50.034;15.256;2023-06-22T02:42:57;16.85;;;2.17;;
70102;SDS011;57470;50.034;15.256;2023-06-22T02:45:26;8.40;;;2.13;;
70102;SDS011;57470;50.034;15.256;2023-06-22T02:47:52;6.00;;;1.80;;
70102;SDS011;57470;50.034;15.256;2023-06-22T02:50:17;7.70;;;1.93;;
70102;SDS011;57470;50.034;15.256;2023-06-22T02:52:43;6.43;;;2.03;;
70102;SDS011;57470;50.034;15.256;2023-06-22T02:55:08;9.17;;;2.17;;
70102;SDS011;57470;50.034;15.256;2023-06-22T02:57:33;6.00;;;2.03;;
70102;SDS011;57470;50.034;15.256;2023-06-22T02:59:59;6.00;;;1.87;;
70102;SDS011;57470;50.034;15.256;2023-06-22T03:02:24;5.97;;;2.13;;
70102;SDS011;57470;50.034;15.256;2023-06-22T03:04:51;6.22;;;1.50;;
70102;SDS011;57470;50.034;15.256;2023-06-22T03:07:18;5.50;;;1.88;;
70102;SDS011;57470;50.034;15.256;2023-06-22T03:09:44;6.17;;;1.77;;
70102;SDS011;57470;50.034;15.256;2023-06-22T03:12:09;5.60;;;1.70;;
70102;SDS011;57470;50.034;15.256;2023-06-22T03:14:35;6.63;;;2.08;;
70102;SDS011;57470;50.034;15.256;2023-06-22T03:17:00;6.00;;;1.67;;
70102;SDS011;57470;50.034;15.256;2023-06-22T03:19:28;7.65;;;2.03;;
70102;SDS011;57470;50.034;15.256;2023-06-22T03:21:56;6.20;;;1.80;;
70102;SDS011;57470;50.034;15.256;2023-06-22T03:24:25;5.50;;;1.75;;
70102;SDS011;57470;50.034;15.256;2023-06-22T03:26:50;5.83;;;1.53;;
70102;SDS011;57470;50.034;15.256;2023-06-22T03:29:16;5.70;;;2.35;;
70102;SDS011;57470;50.034;15.256;2023-06-22T03:31:41;8.90;;;2.40;;
70102;SDS011;57470;50.034;15.256;2023-06-22T03:34:06;7.73;;;2.47;;
70102;SDS011;57470;50.034;15.256;2023-06-22T03:36:32;5.77;;;1.97;;
70102;SDS011;57470;50.034;15.256;2023-06-22T03:38:57;13.33;;;3.63;;
70102;SDS011;57470;50.034;15.256;2023-06-22T03:41:23;7.13;;;2.17;;
70102;SDS011;57470;50.034;15.256;2023-06-22T03:43:48;8.03;;;2.23;;
70102;SDS011;57470;50.034;15.256;2023-06-22T03:46:13;8.10;;;2.60;;
70102;SDS011;57470;50.034;15.256;2023-06-22T03:48:39;8.20;;;1.97;;
70102;SDS011;57470;50.034;15.256;2023-06-22T03:51:04;11.50;;;2.70;;
70102;SDS011;57470;50.034;15.256;2023-06-22T03:53:29;6.68;;;2.20;;
70102;SDS011;57470;50.034;15.256;2023-06-22T03:55:55;8.50;;;2.67;;
70102;SDS011;57470;50.034;15.256;2023-06-22T03:58:21;7.53;;;2.00;;
70102;SDS011;57470;50.034;15.256;2023-06-22T04:00:47;8.45;;;2.03;;
70102;SDS011;57470;50.034;15.256;2023-06-22T04:03:17;11.40;;;1.77;;
70102;SDS011;57470;50.034;15.256;2023-06-22T04:05:45;7.82;;;2.65;;
70102;SDS011;57470;50.034;15.256;2023-06-22T04:08:12;10.60;;;3.60;;
70102;SDS011;57470;50.034;15.256;2023-06-22T04:10:38;5.97;;;2.58;;
70102;SDS011;57470;50.034;15.256;2023-06-22T04:13:03;8.43;;;2.67;;
70102;SDS011;57470;50.034;15.256;2023-06-22T04:15:28;9.30;;;2.33;;
70102;SDS011;57470;50.034;15.256;2023-06-22T04:17:54;5.47;;;2.37;;
70102;SDS011;57470;50.034;15.256;2023-06-22T04:20:21;7.53;;;2.42;;
70102;SDS011;57470;50.034;15.256;2023-06-22T04:22:46;6.65;;;2.70;;
70102;SDS011;57470;50.034;15.256;2023-06-22T04:25:12;6.70;;;2.90;;
70102;SDS011;57470;50.034;15.256;2023-06-22T04:27:37;7.43;;;2.80;;
70102;SDS011;57470;50.034;15.256;2023-06-22T04:30:06;10.15;;;2.85;;
70102;SDS011;57470;50.034;15.256;2023-06-22T04:32:33;10.90;;;2.40;;
70102;SDS011;57470;50.034;15.256;2023-06-22T04:35:01;6.57;;;2.75;;
70102;SDS011;57470;50.034;15.256;2023-06-22T04:37:27;11.93;;;2.67;;
70102;SDS011;57470;50.034;15.256;2023-06-22T04:39:52;6.45;;;2.65;;
70102;SDS011;57470;50.034;15.256;2023-06-22T04:42:18;10.33;;;3.37;;
70102;SDS011;57470;50.034;15.256;2023-06-22T04:44:43;8.43;;;2.77;;
70102;SDS011;57470;50.034;15.256;2023-06-22T04:47:08;11.83;;;2.90;;
70102;SDS011;57470;50.034;15.256;2023-06-22T04:49:34;12.47;;;2.77;;
70102;SDS011;57470;50.034;15.256;2023-06-22T04:52:06;7.30;;;2.40;;
70102;SDS011;57470;50.034;15.256;2023-06-22T04:54:32;8.25;;;3.33;;
70102;SDS011;57470;50.034;15.256;2023-06-22T04:57:02;9.65;;;3.33;;
70102;SDS011;57470;50.034;15.256;2023-06-22T04:59:29;11.93;;;3.25;;
70102;SDS011;57470;50.034;15.256;2023-06-22T05:01:56;9.40;;;3.07;;
70102;SDS011;57470;50.034;15.256;2023-06-22T05:04:26;17.63;;;3.70;;
70102;SDS011;57470;50.034;15.256;2023-06-22T05:06:53;11.07;;;3.97;;
70102;SDS011;57470;50.034;15.256;2023-06-22T05:09:19;9.93;;;2.95;;
70102;SDS011;57470;50.034;15.256;2023-06-22T05:11:46;9.60;;;3.05;;
70102;SDS011;57470;50.034;15.256;2023-06-22T05:14:12;8.13;;;3.23;;
70102;SDS011;57470;50.034;15.256;2023-06-22T05:16:37;6.55;;;2.92;;
70102;SDS011;57470;50.034;15.256;2023-06-22T05:19:03;8.68;;;3.22;;
70102;SDS011;57470;50.034;15.256;2023-06-22T05:21:29;10.37;;;3.33;;
70102;SDS011;57470;50.034;15.256;2023-06-22T05:23:56;12.48;;;2.97;;
70102;SDS011;57470;50.034;15.256;2023-06-22T05:26:27;10.60;;;3.28;;
70102;SDS011;57470;50.034;15.256;2023-06-22T05:28:53;7.33;;;2.73;;
70102;SDS011;57470;50.034;15.256;2023-06-22T05:31:19;7.38;;;3.20;;
70102;SDS011;57470;50.034;15.256;2023-06-22T05:33:44;9.17;;;2.87;;
70102;SDS011;57470;50.034;15.256;2023-06-22T05:36:11;10.20;;;3.08;;
70102;SDS011;57470;50.034;15.256;2023-06-22T05:38:37;13.93;;;3.90;;
70102;SDS011;57470;50.034;15.256;2023-06-22T05:41:04;8.18;;;3.20;;
70102;SDS011;57470;50.034;15.256;2023-06-22T05:43:29;10.27;;;3.30;;
70102;SDS011;57470;50.034;15.256;2023-06-22T05:45:55;12.13;;;3.97;;
70102;SDS011;57470;50.034;15.256;2023-06-22T05:48:20;12.07;;;3.60;;
70102;SDS011;57470;50.034;15.256;2023-06-22T05:50:46;10.67;;;3.77;;
70102;SDS011;57470;50.034;15.256;2023-06-22T05:53:11;11.63;;;4.10;;
70102;SDS011;57470;50.034;15.256;2023-06-22T05:55:37;11.73;;;3.90;;
70102;SDS011;57470;50.034;15.256;2023-06-22T05:58:02;9.07;;;3.30;;
70102;SDS011;57470;50.034;15.256;2023-06-22T06:00:30;9.95;;;3.33;;
70102;SDS011;57470;50.034;15.256;2023-06-22T06:02:56;8.73;;;3.63;;
70102;SDS011;57470;50.034;15.256;2023-06-22T06:05:21;14.07;;;4.03;;
70102;SDS011;57470;50.034;15.256;2023-06-22T06:07:48;8.50;;;4.03;;
70102;SDS011;57470;50.034;15.256;2023-06-22T06:10:13;9.02;;;3.50;;
70102;SDS011;57470;50.034;15.256;2023-06-22T06:12:38;7.67;;;2.60;;
70102;SDS011;57470;50.034;15.256;2023-06-22T06:15:04;7.77;;;3.63;;
70102;SDS011;57470;50.034;15.256;2023-06-22T06:17:30;10.68;;;3.60;;
70102;SDS011;57470;50.034;15.256;2023-06-22T06:19:56;10.90;;;3.33;;
70102;SDS011;57470;50.034;15.256;2023-06-22T06:22:21;14.63;;;3.93;;
70102;SDS011;57470;50.034;15.256;2023-06-22T06:24:48;8.37;;;3.20;;
70102;SDS011;57470;50.034;15.256;2023-06-22T06:27:14;9.90;;;3.55;;
70102;SDS011;57470;50.034;15.256;2023-06-22T06:29:40;13.85;;;4.45;;
70102;SDS011;57470;50.034;15.256;2023-06-22T06:32:05;9.07;;;3.60;;
70102;SDS011;57470;50.034;15.256;2023-06-22T06:34:31;14.47;;;3.70;;
70102;SDS011;57470;50.034;15.256;2023-06-22T06:36:57;11.70;;;3.95;;
70102;SDS011;57470;50.034;15.256;2023-06-22T06:39:22;7.93;;;3.10;;
70102;SDS011;57470;50.034;15.256;2023-06-22T06:41:48;9.23;;;3.17;;
70102;SDS011;57470;50.034;15.256;2023-06-22T06:44:13;8.70;;;3.17;;
70102;SDS011;57470;50.034;15.256;2023-06-22T06:46:39;8.82;;;3.47;;
70102;SDS011;57470;50.034;15.256;2023-06-22T06:49:04;8.43;;;3.57;;
70102;SDS011;57470;50.034;15.256;2023-06-22T06:51:30;8.30;;;3.53;;
70102;SDS011;57470;50.034;15.256;2023-06-22T06:53:55;6.97;;;3.07;;
70102;SDS011;57470;50.034;15.256;2023-06-22T06:56:20;9.38;;;3.70;;
70102;SDS011;57470;50.034;15.256;2023-06-22T06:58:46;10.53;;;3.73;;
70102;SDS011;57470;50.034;15.256;2023-06-22T07:01:12;8.53;;;3.53;;
70102;SDS011;57470;50.034;15.256;2023-06-22T07:03:37;9.23;;;3.63;;
70102;SDS011;57470;50.034;15.256;2023-06-22T07:06:03;10.47;;;3.90;;
70102;SDS011;57470;50.034;15.256;2023-06-22T07:08:29;8.65;;;3.72;;
70102;SDS011;57470;50.034;15.256;2023-06-22T07:10:54;9.73;;;2.93;;
70102;SDS011;57470;50.034;15.256;2023-06-22T07:13:20;8.70;;;3.77;;
70102;SDS011;57470;50.034;15.256;2023-06-22T07:15:45;9.07;;;3.60;;
70102;SDS011;57470;50.034;15.256;2023-06-22T07:18:10;8.65;;;3.67;;
70102;SDS011;57470;50.034;15.256;2023-06-22T07:20:36;10.13;;;3.87;;
70102;SDS011;57470;50.034;15.256;2023-06-22T07:23:01;8.67;;;3.63;;
70102;SDS011;57470;50.034;15.256;2023-06-22T07:25:27;8.17;;;3.60;;
70102;SDS011;57470;50.034;15.256;2023-06-22T07:28:11;8.80;;;3.92;;
70102;SDS011;57470;50.034;15.256;2023-06-22T07:30:36;9.25;;;4.07;;
70102;SDS011;57470;50.034;15.256;2023-06-22T07:33:02;8.33;;;3.70;;
70102;SDS011;57470;50.034;15.256;2023-06-22T07:35:29;9.18;;;3.80;;
70102;SDS011;57470;50.034;15.256;2023-06-22T07:37:56;9.73;;;3.53;;
70102;SDS011;57470;50.034;15.256;2023-06-22T07:40:21;9.77;;;3.60;;
70102;SDS011;57470;50.034;15.256;2023-06-22T07:42:47;8.57;;;3.60;;
70102;SDS011;57470;50.034;15.256;2023-06-22T07:45:13;10.75;;;4.85;;
70102;SDS011;57470;50.034;15.256;2023-06-22T07:47:39;10.55;;;3.53;;
70102;SDS011;57470;50.034;15.256;2023-06-22T07:50:05;7.50;;;3.40;;
70102;SDS011;57470;50.034;15.256;2023-06-22T07:52:31;8.82;;;4.07;;
70102;SDS011;57470;50.034;15.256;2023-06-22T07:54:57;8.63;;;3.80;;
70102;SDS011;57470;50.034;15.256;2023-06-22T07:57:22;11.43;;;4.37;;
70102;SDS011;57470;50.034;15.256;2023-06-22T07:59:48;8.87;;;4.50;;
70102;SDS011;57470;50.034;15.256;2023-06-22T08:02:13;8.10;;;3.17;;
70102;SDS011;57470;50.034;15.256;2023-06-22T08:04:39;9.50;;;3.77;;
70102;SDS011;57470;50.034;15.256;2023-06-22T08:07:05;10.85;;;5.25;;
70102;SDS011;57470;50.034;15.256;2023-06-22T08:09:31;9.13;;;4.77;;
70102;SDS011;57470;50.034;15.256;2023-06-22T08:11:57;6.65;;;3.33;;
70102;SDS011;57470;50.034;15.256;2023-06-22T08:14:24;10.10;;;4.25;;
70102;SDS011;57470;50.034;15.256;2023-06-22T08:16:50;11.63;;;4.60;;
70102;SDS011;57470;50.034;15.256;2023-06-22T08:19:16;7.77;;;3.70;;
70102;SDS011;57470;50.034;15.256;2023-06-22T08:21:42;8.63;;;4.43;;
70102;SDS011;57470;50.034;15.256;2023-06-22T08:24:07;12.27;;;4.50;;
70102;SDS011;57470;50.034;15.256;2023-06-22T08:26:33;11.43;;;4.80;;
70102;SDS011;57470;50.034;15.256;2023-06-22T08:29:02;17.10;;;4.87;;
70102;SDS011;57470;50.034;15.256;2023-06-22T08:31:28;9.15;;;4.35;;
70102;SDS011;57470;50.034;15.256;2023-06-22T08:33:53;10.70;;;5.10;;
70102;SDS011;57470;50.034;15.256;2023-06-22T08:36:18;10.87;;;4.63;;
70102;SDS011;57470;50.034;15.256;2023-06-22T08:38:44;8.93;;;4.00;;
70102;SDS011;57470;50.034;15.256;2023-06-22T08:41:10;9.97;;;4.63;;
70102;SDS011;57470;50.034;15.256;2023-06-22T08:43:35;9.70;;;4.28;;
70102;SDS011;57470;50.034;15.256;2023-06-22T08:46:02;10.55;;;4.40;;
70102;SDS011;57470;50.034;15.256;2023-06-22T08:48:28;7.43;;;4.00;;
70102;SDS011;57470;50.034;15.256;2023-06-22T08:50:53;11.07;;;5.10;;
70102;SDS011;57470;50.034;15.256;2023-06-22T08:53:19;9.00;;;4.70;;
70102;SDS011;57470;50.034;15.256;2023-06-22T08:55:44;10.17;;;4.43;;
70102;SDS011;57470;50.034;15.256;2023-06-22T08:58:10;14.90;;;3.77;;
70102;SDS011;57470;50.034;15.256;2023-06-22T09:00:36;9.80;;;5.20;;
70102;SDS011;57470;50.034;15.256;2023-06-22T09:03:02;9.18;;;5.60;;
70102;SDS011;57470;50.034;15.256;2023-06-22T09:05:28;14.87;;;4.40;;
70102;SDS011;57470;50.034;15.256;2023-06-22T09:07:55;10.30;;;4.88;;
70102;SDS011;57470;50.034;15.256;2023-06-22T09:10:21;9.65;;;5.05;;
70102;SDS011;57470;50.034;15.256;2023-06-22T09:12:47;11.13;;;5.30;;
70102;SDS011;57470;50.034;15.256;2023-06-22T09:15:12;9.67;;;5.33;;
70102;SDS011;57470;50.034;15.256;2023-06-22T09:17:37;11.73;;;4.67;;
70102;SDS011;57470;50.034;15.256;2023-06-22T09:20:03;12.27;;;5.60;;
70102;SDS011;57470;50.034;15.256;2023-06-22T09:22:31;10.10;;;4.53;;
70102;SDS011;57470;50.034;15.256;2023-06-22T09:24:57;10.15;;;4.50;;
70102;SDS011;57470;50.034;15.256;2023-06-22T09:27:24;10.18;;;4.97;;
70102;SDS011;57470;50.034;15.256;2023-06-22T09:29:50;9.10;;;4.50;;
70102;SDS011;57470;50.034;15.256;2023-06-22T09:32:15;8.75;;;4.47;;
70102;SDS011;57470;50.034;15.256;2023-06-22T09:34:41;8.77;;;4.67;;
70102;SDS011;57470;50.034;15.256;2023-06-22T09:37:06;11.30;;;5.33;;
70102;SDS011;57470;50.034;15.256;2023-06-22T09:39:31;9.17;;;4.33;;
70102;SDS011;57470;50.034;15.256;2023-06-22T09:42:00;10.17;;;3.73;;
70102;SDS011;57470;50.034;15.256;2023-06-22T09:44:25;9.55;;;5.10;;
70102;SDS011;57470;50.034;15.256;2023-06-22T09:46:51;7.37;;;3.40;;
70102;SDS011;57470;50.034;15.256;2023-06-22T09:49:16;8.75;;;4.00;;
70102;SDS011;57470;50.034;15.256;2023-06-22T09:51:42;12.33;;;4.97;;
70102;SDS011;57470;50.034;15.256;2023-06-22T09:54:07;9.30;;;5.07;;
70102;SDS011;57470;50.034;15.256;2023-06-22T09:56:32;11.50;;;5.13;;
70102;SDS011;57470;50.034;15.256;2023-06-22T09:58:58;9.80;;;5.67;;
70102;SDS011;57470;50.034;15.256;2023-06-22T10:01:23;10.50;;;4.73;;
70102;SDS011;57470;50.034;15.256;2023-06-22T10:03:49;9.97;;;5.20;;
70102;SDS011;57470;50.034;15.256;2023-06-22T10:06:19;11.48;;;4.97;;
70102;SDS011;57470;50.034;15.256;2023-06-22T10:08:45;12.90;;;5.15;;
70102;SDS011;57470;50.034;15.256;2023-06-22T10:11:10;9.57;;;5.03;;
70102;SDS011;57470;50.034;15.256;2023-06-22T10:13:35;10.47;;;5.60;;
70102;SDS011;57470;50.034;15.256;2023-06-22T10:16:01;10.03;;;5.37;;
70102;SDS011;57470;50.034;15.256;2023-06-22T10:18:26;9.98;;;5.18;;
70102;SDS011;57470;50.034;15.256;2023-06-22T10:20:52;10.63;;;5.63;;
70102;SDS011;57470;50.034;15.256;2023-06-22T10:23:18;8.27;;;4.63;;
70102;SDS011;57470;50.034;15.256;2023-06-22T10:25:43;12.05;;;4.72;;
70102;SDS011;57470;50.034;15.256;2023-06-22T10:28:09;9.80;;;5.43;;
70102;SDS011;57470;50.034;15.256;2023-06-22T10:30:34;6.27;;;2.67;;
70102;SDS011;57470;50.034;15.256;2023-06-22T10:33:00;12.10;;;5.43;;
70102;SDS011;57470;50.034;15.256;2023-06-22T10:35:25;14.30;;;5.60;;
70102;SDS011;57470;50.034;15.256;2023-06-22T10:37:50;9.67;;;5.20;;
70102;SDS011;57470;50.034;15.256;2023-06-22T10:40:16;11.03;;;5.60;;
70102;SDS011;57470;50.034;15.256;2023-06-22T10:42:43;10.60;;;6.60;;
70102;SDS011;57470;50.034;15.256;2023-06-22T10:45:09;13.43;;;6.28;;
70102;SDS011;57470;50.034;15.256;2023-06-22T10:47:35;9.00;;;5.13;;
70102;SDS011;57470;50.034;15.256;2023-06-22T10:50:01;10.60;;;5.72;;
70102;SDS011;57470;50.034;15.256;2023-06-22T10:52:27;10.83;;;5.17;;
70102;SDS011;57470;50.034;15.256;2023-06-22T10:54:52;9.73;;;6.27;;
70102;SDS011;57470;50.034;15.256;2023-06-22T10:57:18;9.90;;;5.70;;
70102;SDS011;57470;50.034;15.256;2023-06-22T10:59:43;10.90;;;5.60;;
70102;SDS011;57470;50.034;15.256;2023-06-22T11:02:09;12.80;;;5.82;;
70102;SDS011;57470;50.034;15.256;2023-06-22T11:04:34;10.13;;;6.07;;
70102;SDS011;57470;50.034;15.256;2023-06-22T11:07:00;11.43;;;6.88;;
70102;SDS011;57470;50.034;15.256;2023-06-22T11:09:26;11.07;;;5.97;;
70102;SDS011;57470;50.034;15.256;2023-06-22T11:11:52;10.00;;;5.30;;
70102;SDS011;57470;50.034;15.256;2023-06-22T11:14:21;10.57;;;5.78;;
70102;SDS011;57470;50.034;15.256;2023-06-22T11:16:47;11.77;;;6.97;;
70102;SDS011;57470;50.034;15.256;2023-06-22T11:19:12;10.37;;;6.07;;
70102;SDS011;57470;50.034;15.256;2023-06-22T11:21:38;9.50;;;4.83;;
70102;SDS011;57470;50.034;15.256;2023-06-22T11:24:04;11.68;;;6.60;;
70102;SDS011;57470;50.034;15.256;2023-06-22T11:26:29;12.23;;;6.83;;
70102;SDS011;57470;50.034;15.256;2023-06-22T11:28:55;8.75;;;4.90;;
70102;SDS011;57470;50.034;15.256;2023-06-22T11:31:20;11.13;;;6.20;;
70102;SDS011;57470;50.034;15.256;2023-06-22T11:33:46;10.57;;;5.90;;
70102;SDS011;57470;50.034;15.256;2023-06-22T11:36:12;11.23;;;6.50;;
70102;SDS011;57470;50.034;15.256;2023-06-22T11:38:38;11.77;;;5.68;;
70102;SDS011;57470;50.034;15.256;2023-06-22T11:41:08;12.37;;;6.97;;
70102;SDS011;57470;50.034;15.256;2023-06-22T11:43:34;11.55;;;6.65;;
70102;SDS011;57470;50.034;15.256;2023-06-22T11:46:00;12.02;;;5.88;;
70102;SDS011;57470;50.034;15.256;2023-06-22T11:48:26;11.23;;;6.13;;
70102;SDS011;57470;50.034;15.256;2023-06-22T11:50:52;9.70;;;5.83;;
70102;SDS011;57470;50.034;15.256;2023-06-22T11:53:17;10.73;;;6.13;;
70102;SDS011;57470;50.034;15.256;2023-06-22T11:55:43;10.03;;;6.30;;
70102;SDS011;57470;50.034;15.256;2023-06-22T11:58:09;12.18;;;6.65;;
70102;SDS011;57470;50.034;15.256;2023-06-22T12:00:35;11.77;;;6.45;;
70102;SDS011;57470;50.034;15.256;2023-06-22T12:03:00;8.97;;;5.23;;
70102;SDS011;57470;50.034;15.256;2023-06-22T12:05:26;10.17;;;6.20;;
70102;SDS011;57470;50.034;15.256;2023-06-22T12:07:54;10.93;;;6.27;;
70102;SDS011;57470;50.034;15.256;2023-06-22T12:10:21;11.13;;;6.80;;
70102;SDS011;57470;50.034;15.256;2023-06-22T12:12:47;11.33;;;6.07;;
70102;SDS011;57470;50.034;15.256;2023-06-22T12:15:13;10.93;;;5.75;;
70102;SDS011;57470;50.034;15.256;2023-06-22T12:17:38;10.73;;;5.67;;
70102;SDS011;57470;50.034;15.256;2023-06-22T12:20:04;10.67;;;6.47;;
70102;SDS011;57470;50.034;15.256;2023-06-22T12:22:31;10.98;;;5.07;;
70102;SDS011;57470;50.034;15.256;2023-06-22T12:25:00;9.50;;;4.95;;
70102;SDS011;57470;50.034;15.256;2023-06-22T12:27:26;11.68;;;6.00;;
70102;SDS011;57470;50.034;15.256;2023-06-22T12:29:52;12.13;;;5.60;;
70102;SDS011;57470;50.034;15.256;2023-06-22T12:32:17;11.10;;;6.47;;
70102;SDS011;57470;50.034;15.256;2023-06-22T12:34:43;11.20;;;5.90;;
70102;SDS011;57470;50.034;15.256;2023-06-22T12:37:09;13.13;;;5.40;;
70102;SDS011;57470;50.034;15.256;2023-06-22T12:39:35;9.13;;;5.10;;
70102;SDS011;57470;50.034;15.256;2023-06-22T12:42:00;6.13;;;2.97;;
70102;SDS011;57470;50.034;15.256;2023-06-22T12:44:26;9.93;;;5.63;;
70102;SDS011;57470;50.034;15.256;2023-06-22T12:46:51;10.27;;;6.37;;
70102;SDS011;57470;50.034;15.256;2023-06-22T12:49:17;11.67;;;6.53;;
70102;SDS011;57470;50.034;15.256;2023-06-22T12:51:43;8.82;;;5.90;;
70102;SDS011;57470;50.034;15.256;2023-06-22T12:54:09;11.73;;;6.03;;
70102;SDS011;57470;50.034;15.256;2023-06-22T12:56:35;12.53;;;5.33;;
70102;SDS011;57470;50.034;15.256;2023-06-22T12:59:01;10.85;;;6.30;;
70102;SDS011;57470;50.034;15.256;2023-06-22T13:01:30;9.20;;;5.68;;
70102;SDS011;57470;50.034;15.256;2023-06-22T13:03:57;11.17;;;6.70;;
70102;SDS011;57470;50.034;15.256;2023-06-22T13:06:23;11.00;;;5.85;;
70102;SDS011;57470;50.034;15.256;2023-06-22T13:08:48;10.00;;;5.60;;
70102;SDS011;57470;50.034;15.256;2023-06-22T13:11:14;9.88;;;5.55;;
70102;SDS011;57470;50.034;15.256;2023-06-22T13:13:40;9.47;;;5.47;;
70102;SDS011;57470;50.034;15.256;2023-06-22T13:16:05;11.93;;;5.37;;
70102;SDS011;57470;50.034;15.256;2023-06-22T13:18:31;9.85;;;5.53;;
70102;SDS011;57470;50.034;15.256;2023-06-22T13:20:58;8.55;;;4.93;;
70102;SDS011;57470;50.034;15.256;2023-06-22T13:23:25;11.23;;;5.47;;
70102;SDS011;57470;50.034;15.256;2023-06-22T13:25:50;9.87;;;5.60;;
70102;SDS011;57470;50.034;15.256;2023-06-22T13:28:15;9.93;;;5.57;;
70102;SDS011;57470;50.034;15.256;2023-06-22T13:30:41;10.63;;;5.85;;
70102;SDS011;57470;50.034;15.256;2023-06-22T13:33:08;10.83;;;5.77;;
70102;SDS011;57470;50.034;15.256;2023-06-22T13:35:34;9.70;;;5.93;;
70102;SDS011;57470;50.034;15.256;2023-06-22T13:38:00;9.07;;;4.82;;
70102;SDS011;57470;50.034;15.256;2023-06-22T13:40:26;10.55;;;5.57;;
70102;SDS011;57470;50.034;15.256;2023-06-22T13:42:51;11.70;;;4.90;;
70102;SDS011;57470;50.034;15.256;2023-06-22T13:45:16;9.30;;;5.23;;
70102;SDS011;57470;50.034;15.256;2023-06-22T13:47:44;11.38;;;4.95;;
70102;SDS011;57470;50.034;15.256;2023-06-22T13:50:09;11.93;;;5.10;;
70102;SDS011;57470;50.034;15.256;2023-06-22T13:52:35;9.43;;;5.00;;
70102;SDS011;57470;50.034;15.256;2023-06-22T13:55:01;10.00;;;5.47;;
70102;SDS011;57470;50.034;15.256;2023-06-22T13:57:27;8.20;;;4.87;;
70102;SDS011;57470;50.034;15.256;2023-06-22T13:59:52;11.40;;;5.67;;
70102;SDS011;57470;50.034;15.256;2023-06-22T14:02:18;10.13;;;5.30;;
70102;SDS011;57470;50.034;15.256;2023-06-22T14:04:43;17.83;;;6.23;;
70102;SDS011;57470;50.034;15.256;2023-06-22T14:07:08;11.50;;;4.83;;
70102;SDS011;57470;50.034;15.256;2023-06-22T14:09:34;9.63;;;5.57;;
70102;SDS011;57470;50.034;15.256;2023-06-22T14:12:02;10.77;;;5.33;;
70102;SDS011;57470;50.034;15.256;2023-06-22T14:14:29;10.38;;;5.30;;
70102;SDS011;57470;50.034;15.256;2023-06-22T14:16:55;8.30;;;4.82;;
70102;SDS011;57470;50.034;15.256;2023-06-22T14:19:21;16.13;;;5.60;;
70102;SDS011;57470;50.034;15.256;2023-06-22T14:21:46;8.27;;;4.07;;
70102;SDS011;57470;50.034;15.256;2023-06-22T14:24:11;11.53;;;5.20;;
70102;SDS011;57470;50.034;15.256;2023-06-22T14:26:37;11.40;;;5.33;;
70102;SDS011;57470;50.034;15.256;2023-06-22T14:29:02;8.03;;;4.17;;